Time;durP1;ratioP1;P1;durP2;ratioP2;P2;SDS_P1;SDS_P2;PMS_P1;PMS_P2;Temp;Humidity;BMP_temperature;BMP_pressure;BME280_temperature;BME280_humidity;BME280_pressure;Samples;Min_cycle;Max_cycle;Signal;HPM_P1;HPM_P2
2023/07/07 00:01:53;;;;;;;3.90;3.60;;;22.40;58.80;;;;;;5016675;28;20183;-72
2023/07/07 00:04:21;;;;;;;4.00;3.20;;;22.40;58.80;;;;;;5016693;28;20209;-71
2023/07/07 00:06:47;;;;;;;3.50;3.15;;;22.40;58.90;;;;;;5017069;28;20183;-72
2023/07/07 00:09:13;;;;;;;3.65;3.17;;;22.40;58.80;;;;;;5016904;28;20187;-72
2023/07/07 00:11:39;;;;;;;4.15;3.75;;;22.40;58.80;;;;;;5013457;28;20246;-72
2023/07/07 00:14:06;;;;;;;3.53;3.20;;;22.40;58.80;;;;;;5016507;28;20215;-72
2023/07/07 00:16:31;;;;;;;4.13;3.35;;;22.40;58.80;;;;;;5016223;28;20648;-72
2023/07/07 00:18:59;;;;;;;3.58;3.33;;;22.40;58.80;;;;;;5016311;28;20239;-72
2023/07/07 00:21:26;;;;;;;3.55;3.22;;;22.40;58.80;;;;;;5016047;28;20191;-72
2023/07/07 00:23:55;;;;;;;3.90;3.10;;;22.40;58.90;;;;;;5029257;28;20212;-71
2023/07/07 00:26:23;;;;;;;3.70;3.40;;;22.40;58.80;;;;;;5011585;28;20196;-72
2023/07/07 00:28:49;;;;;;;3.70;3.30;;;22.40;58.80;;;;;;5016378;28;20253;-72
2023/07/07 00:31:18;;;;;;;3.22;2.92;;;22.40;59.50;;;;;;5016290;28;20183;-71
2023/07/07 00:33:44;;;;;;;3.45;3.15;;;22.30;58.80;;;;;;5012855;28;20299;-72
2023/07/07 00:36:11;;;;;;;4.22;3.53;;;22.30;58.80;;;;;;5012716;28;20199;-72
2023/07/07 00:38:37;;;;;;;3.63;3.33;;;22.30;58.80;;;;;;5015678;28;20208;-72
2023/07/07 00:41:06;;;;;;;3.58;3.25;;;22.30;58.80;;;;;;5016228;28;20180;-72
2023/07/07 00:43:32;;;;;;;3.95;3.58;;;22.30;58.80;;;;;;5015455;28;20207;-72
2023/07/07 00:46:00;;;;;;;3.58;3.28;;;22.30;58.80;;;;;;5015988;28;20222;-72
2023/07/07 00:48:29;;;;;;;4.18;3.65;;;22.30;58.80;;;;;;5030364;28;20179;-72
2023/07/07 00:51:05;;;;;;;3.50;3.20;;;22.30;58.80;;;;;;5031509;28;20195;-72
2023/07/07 00:53:32;;;;;;;3.22;2.92;;;22.30;58.80;;;;;;5015302;28;20205;-70
2023/07/07 00:56:12;;;;;;;3.63;3.33;;;22.30;58.80;;;;;;5015564;28;20180;-70
2023/07/07 00:58:42;;;;;;;3.33;3.03;;;22.30;58.80;;;;;;5032000;28;20217;-70
2023/07/07 01:01:14;;;;;;;3.63;3.33;;;22.30;58.80;;;;;;5029039;28;20203;-70
2023/07/07 01:03:50;;;;;;;3.30;3.00;;;22.30;58.80;;;;;;5007395;28;20265;-70
2023/07/07 01:06:24;;;;;;;4.00;3.40;;;22.30;58.80;;;;;;5032182;28;20187;-68
2023/07/07 01:09:00;;;;;;;4.28;3.33;;;22.30;58.80;;;;;;5015784;28;20195;-70
2023/07/07 01:11:27;;;;;;;3.53;3.22;;;22.30;58.80;;;;;;5015509;28;20195;-69
2023/07/07 01:13:55;;;;;;;3.67;3.25;;;22.30;58.80;;;;;;5015326;28;20214;-69
2023/07/07 01:17:06;;;;;;;3.63;3.28;;;22.30;58.80;;;;;;5015470;28;20192;-69
2023/07/07 01:20:00;;;;;;;3.70;3.40;;;22.30;58.80;;;;;;5039183;28;20264;-70
2023/07/07 01:23:15;;;;;;;3.60;3.25;;;22.30;58.80;;;;;;5015217;28;20195;-70
2023/07/07 01:25:49;;;;;;;4.22;3.78;;;22.30;58.80;;;;;;4985194;28;20210;-70
2023/07/07 01:28:48;;;;;;;3.30;3.00;;;22.30;58.80;;;;;;5014814;28;20277;-68
2023/07/07 01:31:17;;;;;;;3.17;2.95;;;22.30;58.80;;;;;;5031691;28;20209;-70
2023/07/07 01:33:46;;;;;;;3.53;3.22;;;22.30;58.90;;;;;;5020355;28;20675;-70
2023/07/07 01:36:13;;;;;;;3.25;2.95;;;22.30;58.90;;;;;;5008180;28;20283;-70
2023/07/07 01:38:44;;;;;;;3.72;3.28;;;22.30;58.80;;;;;;5014922;28;20211;-70
2023/07/07 01:41:31;;;;;;;3.42;3.13;;;22.30;58.80;;;;;;5014900;28;20266;-70
2023/07/07 01:44:18;;;;;;;3.47;3.17;;;22.30;58.80;;;;;;5014921;28;20717;-70
2023/07/07 01:47:03;;;;;;;3.35;3.05;;;22.30;58.80;;;;;;5004174;28;20199;-70
2023/07/07 01:49:58;;;;;;;3.15;2.85;;;22.20;58.80;;;;;;5028507;28;20274;-70
2023/07/07 01:52:35;;;;;;;3.65;3.25;;;22.30;58.90;;;;;;5031350;28;20222;-70
2023/07/07 01:55:13;;;;;;;4.15;3.70;;;22.20;58.80;;;;;;5014539;28;20226;-70
2023/07/07 01:57:45;;;;;;;3.45;3.08;;;22.30;58.90;;;;;;5022877;28;20219;-70
2023/07/07 02:00:15;;;;;;;3.47;3.17;;;22.30;58.90;;;;;;5027841;28;20192;-69
2023/07/07 02:02:43;;;;;;;3.50;3.20;;;22.20;58.80;;;;;;5023597;28;20195;-70
2023/07/07 02:05:11;;;;;;;4.15;3.72;;;22.20;58.80;;;;;;5014442;28;20206;-70
2023/07/07 02:07:38;;;;;;;3.92;3.08;;;22.30;58.90;;;;;;5014589;28;20240;-70
2023/07/07 02:10:04;;;;;;;3.63;3.30;;;22.30;58.90;;;;;;5030853;28;20195;-70
2023/07/07 02:12:30;;;;;;;4.05;3.33;;;22.20;58.80;;;;;;5030225;28;20195;-70
2023/07/07 02:14:56;;;;;;;3.78;3.35;;;22.30;58.90;;;;;;5006959;28;20223;-71
2023/07/07 02:17:24;;;;;;;3.75;3.35;;;22.20;58.80;;;;;;5008612;28;20241;-70
2023/07/07 02:19:50;;;;;;;3.50;3.20;;;22.20;58.80;;;;;;5014399;28;20188;-70
2023/07/07 02:22:16;;;;;;;3.70;3.40;;;22.20;58.80;;;;;;5013976;28;20282;-70
2023/07/07 02:24:42;;;;;;;3.28;3.03;;;22.20;58.90;;;;;;5013989;28;20206;-69
2023/07/07 02:27:10;;;;;;;3.20;2.90;;;22.20;58.90;;;;;;5021351;28;20186;-70
2023/07/07 02:29:37;;;;;;;3.28;2.97;;;22.30;59.00;;;;;;5033703;28;20182;-69
2023/07/07 02:32:05;;;;;;;3.50;3.20;;;22.20;58.80;;;;;;5019079;28;20183;-70
2023/07/07 02:34:31;;;;;;;3.78;3.17;;;22.20;58.90;;;;;;5028840;28;20211;-70
2023/07/07 02:36:58;;;;;;;3.50;3.20;;;22.20;58.90;;;;;;5014504;28;20737;-69
2023/07/07 02:39:26;;;;;;;2.80;2.60;;;22.20;58.80;;;;;;5014222;28;20313;-69
2023/07/07 02:41:52;;;;;;;3.40;3.10;;;22.20;58.90;;;;;;5035800;28;20182;-70
2023/07/07 02:44:17;;;;;;;3.60;3.30;;;22.20;58.80;;;;;;5016907;28;20211;-69
2023/07/07 02:46:44;;;;;;;3.10;2.80;;;22.20;58.80;;;;;;5013848;28;20213;-70
2023/07/07 02:49:11;;;;;;;3.15;2.85;;;22.20;58.90;;;;;;5027236;28;20191;-70
2023/07/07 02:51:36;;;;;;;3.25;2.95;;;22.20;58.80;;;;;;5013300;28;20187;-70
2023/07/07 02:54:03;;;;;;;3.20;2.90;;;22.20;58.80;;;;;;5013851;28;20234;-70
2023/07/07 02:56:29;;;;;;;3.40;3.10;;;22.20;58.80;;;;;;5031055;28;20188;-69
2023/07/07 02:58:55;;;;;;;3.53;2.90;;;22.20;58.90;;;;;;5020114;28;20302;-70
2023/07/07 03:01:23;;;;;;;3.50;3.20;;;22.20;58.90;;;;;;5013904;28;20286;-70
2023/07/07 03:03:51;;;;;;;3.40;3.10;;;22.20;58.90;;;;;;5028125;28;20609;-70
2023/07/07 03:06:21;;;;;;;3.22;2.97;;;22.20;59.50;;;;;;5013676;28;20195;-69
2023/07/07 03:08:50;;;;;;;3.33;3.03;;;22.20;58.90;;;;;;5014330;28;20179;-69
2023/07/07 03:11:21;;;;;;;3.50;3.20;;;22.20;58.90;;;;;;5013882;28;20193;-68
2023/07/07 03:13:49;;;;;;;4.20;3.30;;;22.20;58.90;;;;;;5027146;28;20626;-69
2023/07/07 03:16:30;;;;;;;3.55;3.25;;;22.20;58.90;;;;;;5030796;28;20187;-69
2023/07/07 03:19:03;;;;;;;3.45;3.03;;;22.20;58.90;;;;;;5018081;28;20222;-69
2023/07/07 03:21:32;;;;;;;3.38;3.08;;;22.20;58.90;;;;;;5033528;28;20603;-70
2023/07/07 03:24:07;;;;;;;3.20;2.90;;;22.20;58.90;;;;;;5018605;28;20289;-70
2023/07/07 03:26:33;;;;;;;3.10;2.80;;;22.20;58.90;;;;;;5016488;28;20196;-70
2023/07/07 03:29:03;;;;;;;3.17;2.88;;;22.20;58.90;;;;;;5033763;28;20202;-70
2023/07/07 03:31:31;;;;;;;3.40;3.10;;;22.20;59.50;;;;;;5016230;28;20192;-70
2023/07/07 03:34:03;;;;;;;3.45;3.15;;;22.10;58.90;;;;;;5017456;28;20207;-70
2023/07/07 03:36:35;;;;;;;3.30;3.00;;;22.20;58.90;;;;;;5017682;28;20206;-70
2023/07/07 03:39:04;;;;;;;3.03;2.72;;;22.20;58.90;;;;;;5017530;28;20218;-70
2023/07/07 03:41:30;;;;;;;3.65;3.35;;;22.20;59.00;;;;;;5017204;28;20236;-70
2023/07/07 03:43:58;;;;;;;3.50;3.20;;;22.10;58.80;;;;;;5017313;28;20210;-70
2023/07/07 03:46:28;;;;;;;2.88;2.67;;;22.10;58.90;;;;;;5019161;28;20180;-70
2023/07/07 03:48:56;;;;;;;3.25;2.95;;;22.20;59.00;;;;;;5033474;28;20191;-70
2023/07/07 03:51:34;;;;;;;3.28;2.97;;;22.10;58.90;;;;;;5033596;28;20324;-71
2023/07/07 03:54:00;;;;;;;3.47;3.17;;;22.20;59.00;;;;;;5030198;28;20274;-71
2023/07/07 03:56:26;;;;;;;3.67;3.30;;;22.20;58.90;;;;;;5015230;28;20272;-69
2023/07/07 03:58:53;;;;;;;3.35;3.05;;;22.20;58.90;;;;;;5017104;28;20203;-70
2023/07/07 04:01:19;;;;;;;3.25;2.95;;;22.10;58.90;;;;;;5030415;28;20257;-70
2023/07/07 04:03:46;;;;;;;3.72;3.42;;;22.20;58.90;;;;;;5014282;28;20207;-70
2023/07/07 04:06:17;;;;;;;3.30;3.05;;;22.20;58.90;;;;;;5032876;28;20230;-70
2023/07/07 04:08:43;;;;;;;3.40;3.10;;;22.10;58.90;;;;;;5033272;28;20217;-70
2023/07/07 04:11:19;;;;;;;3.40;3.10;;;22.10;58.90;;;;;;5016572;28;20198;-70
2023/07/07 04:13:48;;;;;;;3.08;2.88;;;22.10;59.00;;;;;;5029534;28;20218;-69
2023/07/07 04:16:20;;;;;;;3.30;3.00;;;22.10;58.90;;;;;;5009672;28;20234;-70
2023/07/07 04:18:48;;;;;;;3.42;3.10;;;22.10;59.00;;;;;;5009287;28;20302;-70
2023/07/07 04:21:20;;;;;;;3.38;3.08;;;22.10;59.00;;;;;;5016881;28;20198;-70
2023/07/07 04:23:50;;;;;;;3.35;3.05;;;22.10;59.00;;;;;;5029623;28;20211;-70
2023/07/07 04:26:18;;;;;;;3.25;2.95;;;22.10;59.10;;;;;;5009698;28;20185;-70
2023/07/07 04:28:44;;;;;;;3.25;2.95;;;22.10;59.10;;;;;;5016547;28;20273;-70
2023/07/07 04:31:12;;;;;;;3.53;3.22;;;22.10;59.10;;;;;;5016489;28;20241;-69
2023/07/07 04:33:39;;;;;;;3.35;3.03;;;22.10;59.10;;;;;;5016204;28;20218;-69
2023/07/07 04:36:09;;;;;;;3.22;2.92;;;22.10;59.00;;;;;;5032618;28;20253;-69
2023/07/07 04:38:35;;;;;;;3.45;3.17;;;22.10;59.00;;;;;;5016171;28;20219;-70
2023/07/07 04:41:18;;;;;;;3.35;3.05;;;22.10;59.60;;;;;;5032696;28;20183;-70
2023/07/07 04:43:50;;;;;;;3.50;3.20;;;22.10;58.90;;;;;;5023863;28;20207;-69
2023/07/07 04:46:30;;;;;;;3.28;2.97;;;22.10;58.90;;;;;;5015947;28;20191;-69
2023/07/07 04:48:57;;;;;;;3.53;3.22;;;22.10;59.00;;;;;;5032518;28;20278;-69
2023/07/07 04:51:24;;;;;;;3.40;3.08;;;22.10;59.60;;;;;;5029860;28;20204;-69
2023/07/07 04:53:49;;;;;;;3.70;3.40;;;22.10;58.90;;;;;;5015808;28;20294;-70
2023/07/07 04:56:19;;;;;;;3.38;3.08;;;22.10;59.00;;;;;;5015922;28;20277;-69
2023/07/07 04:58:49;;;;;;;3.40;3.10;;;22.10;59.00;;;;;;5024411;28;20207;-69
2023/07/07 05:01:25;;;;;;;3.53;3.22;;;22.10;59.00;;;;;;5038588;28;20222;-67
2023/07/07 05:03:58;;;;;;;4.03;3.60;;;22.10;59.00;;;;;;5005694;28;20208;-70
2023/07/07 05:06:26;;;;;;;3.53;3.22;;;22.10;59.00;;;;;;5035632;28;20287;-69
2023/07/07 05:08:53;;;;;;;3.47;3.08;;;22.10;59.00;;;;;;5031779;28;20411;-71
2023/07/07 05:11:23;;;;;;;3.90;3.10;;;22.10;59.00;;;;;;5031957;28;20274;-69
2023/07/07 05:13:51;;;;;;;3.20;2.92;;;22.10;59.00;;;;;;5031286;28;20207;-71
2023/07/07 05:16:20;;;;;;;3.22;2.83;;;;;;;;;;5028170;28;20192;-69
2023/07/07 05:18:46;;;;;;;3.47;3.17;;;22.00;58.40;;;;;;5014179;28;20226;-70
2023/07/07 05:21:15;;;;;;;3.35;3.05;;;22.10;59.00;;;;;;5010679;28;20181;-71
2023/07/07 05:23:41;;;;;;;3.47;3.17;;;22.00;58.90;;;;;;5023330;28;20203;-70
2023/07/07 05:26:08;;;;;;;3.83;3.53;;;22.00;59.00;;;;;;5023456;28;20284;-71
2023/07/07 05:28:34;;;;;;;3.22;2.92;;;22.00;59.00;;;;;;5031437;28;20241;-70
2023/07/07 05:31:00;;;;;;;3.30;3.00;;;22.00;59.10;;;;;;5015210;28;20188;-70
2023/07/07 05:33:28;;;;;;;3.55;3.10;;;22.10;59.20;;;;;;5014949;28;20222;-70
2023/07/07 05:35:59;;;;;;;3.40;3.03;;;22.00;59.10;;;;;;5015157;28;20237;-70
2023/07/07 05:38:27;;;;;;;3.28;3.03;;;22.10;59.20;;;;;;5014511;28;20246;-70
2023/07/07 05:40:54;;;;;;;3.33;3.03;;;22.00;59.10;;;;;;5015096;28;20191;-70
2023/07/07 05:43:24;;;;;;;3.90;3.50;;;22.00;59.10;;;;;;5027733;28;20679;-72
2023/07/07 05:46:00;;;;;;;3.45;3.15;;;22.00;59.10;;;;;;5027775;28;20180;-73
2023/07/07 05:48:27;;;;;;;3.45;3.15;;;22.10;59.20;;;;;;5010258;28;20222;-73
2023/07/07 05:51:01;;;;;;;3.42;3.10;;;22.10;59.20;;;;;;5014604;28;20202;-72
2023/07/07 05:53:27;;;;;;;3.70;3.40;;;22.10;59.20;;;;;;5030813;28;20191;-73
2023/07/07 05:56:03;;;;;;;3.28;3.08;;;22.10;59.20;;;;;;5030960;28;20198;-73
2023/07/07 05:58:30;;;;;;;3.20;2.90;;;22.10;59.50;;;;;;5022359;28;20210;-73
2023/07/07 06:00:56;;;;;;;3.63;3.30;;;22.00;59.20;;;;;;5030068;28;20603;-72
2023/07/07 06:03:21;;;;;;;3.50;3.20;;;22.00;59.20;;;;;;5013436;28;20249;-73
2023/07/07 06:05:47;;;;;;;3.60;3.30;;;22.00;59.20;;;;;;5014449;28;20199;-73
2023/07/07 06:08:13;;;;;;;3.63;3.33;;;22.00;59.20;;;;;;5027533;28;20243;-73
2023/07/07 06:10:39;;;;;;;3.70;2.90;;;22.00;59.30;;;;;;5022778;28;20322;-72
2023/07/07 06:13:04;;;;;;;3.50;3.20;;;22.00;59.30;;;;;;5018725;28;20198;-73
2023/07/07 06:15:31;;;;;;;3.45;3.15;;;22.00;59.30;;;;;;5031896;28;20242;-74
2023/07/07 06:17:57;;;;;;;3.70;3.35;;;22.00;59.40;;;;;;5022735;28;20223;-73
2023/07/07 06:20:23;;;;;;;3.33;3.00;;;22.10;59.40;;;;;;5030954;28;20195;-72
2023/07/07 06:22:48;;;;;;;3.17;2.90;;;22.00;59.40;;;;;;5012658;28;20239;-72
2023/07/07 06:25:14;;;;;;;3.15;2.85;;;22.00;59.40;;;;;;5012025;28;20203;-72
2023/07/07 06:27:40;;;;;;;3.63;3.33;;;22.00;59.50;;;;;;5013817;28;20654;-72
2023/07/07 06:30:07;;;;;;;3.17;2.88;;;22.00;59.40;;;;;;5013597;28;20194;-73
2023/07/07 06:32:33;;;;;;;3.30;3.00;;;22.00;59.50;;;;;;5013900;28;20222;-72
2023/07/07 06:34:58;;;;;;;3.60;3.30;;;22.00;59.50;;;;;;5021288;28;20278;-70
2023/07/07 06:37:24;;;;;;;3.58;3.05;;;22.00;59.50;;;;;;5013858;28;20202;-71
2023/07/07 06:39:50;;;;;;;3.25;3.03;;;22.00;59.50;;;;;;5013737;28;20222;-73
2023/07/07 06:42:16;;;;;;;3.22;2.92;;;22.10;59.60;;;;;;5014043;28;20214;-73
2023/07/07 06:44:49;;;;;;;3.60;3.30;;;22.00;59.50;;;;;;5020026;28;20244;-72
2023/07/07 06:47:17;;;;;;;3.28;2.97;;;22.00;59.50;;;;;;5010632;28;20321;-73
2023/07/07 06:49:43;;;;;;;3.40;3.10;;;22.00;59.50;;;;;;5015822;28;20199;-72
2023/07/07 06:52:09;;;;;;;3.75;3.42;;;22.00;59.50;;;;;;5034649;28;20191;-73
2023/07/07 06:54:35;;;;;;;3.40;3.10;;;22.00;59.50;;;;;;5017485;28;20211;-73
2023/07/07 06:57:01;;;;;;;3.10;2.80;;;22.10;59.60;;;;;;5031484;28;20222;-73
2023/07/07 06:59:26;;;;;;;3.20;2.90;;;22.10;59.60;;;;;;5015836;28;20278;-73
2023/07/07 07:01:52;;;;;;;3.70;3.40;;;22.00;59.50;;;;;;5034373;28;20697;-73
2023/07/07 07:04:18;;;;;;;3.63;3.22;;;22.00;59.50;;;;;;5017536;28;20209;-72
2023/07/07 07:06:44;;;;;;;3.22;2.92;;;22.00;59.60;;;;;;5034533;28;20190;-72
2023/07/07 07:09:10;;;;;;;3.55;2.90;;;22.00;59.60;;;;;;5017321;28;20199;-72
2023/07/07 07:11:37;;;;;;;3.30;3.00;;;22.00;59.60;;;;;;5017858;28;20380;-72
2023/07/07 07:14:03;;;;;;;3.88;3.08;;;22.10;59.70;;;;;;5017365;28;20218;-73
2023/07/07 07:16:28;;;;;;;3.47;3.00;;;22.10;59.70;;;;;;5015862;28;20574;-72
2023/07/07 07:18:54;;;;;;;3.15;2.92;;;22.00;59.70;;;;;;5017386;28;20208;-73
2023/07/07 07:21:20;;;;;;;3.88;3.30;;;22.00;59.70;;;;;;5033785;28;20191;-73
2023/07/07 07:23:46;;;;;;;3.20;2.90;;;22.00;59.70;;;;;;5017579;28;20230;-73
2023/07/07 07:26:12;;;;;;;3.08;2.78;;;22.00;59.80;;;;;;5018662;28;20291;-73
2023/07/07 07:28:38;;;;;;;3.47;3.17;;;22.00;59.70;;;;;;5017085;28;20191;-73
2023/07/07 07:31:03;;;;;;;3.10;2.80;;;22.00;59.80;;;;;;5017533;28;20201;-73
2023/07/07 07:33:29;;;;;;;3.25;3.00;;;22.00;59.80;;;;;;5016894;28;20241;-73
2023/07/07 07:35:55;;;;;;;2.85;2.55;;;22.10;59.80;;;;;;5017513;28;20590;-73
2023/07/07 07:38:21;;;;;;;3.33;3.03;;;22.00;59.80;;;;;;5027887;28;20216;-73
2023/07/07 07:40:50;;;;;;;4.03;3.50;;;22.00;59.80;;;;;;5022972;28;20182;-73
2023/07/07 07:43:16;;;;;;;4.18;3.50;;;22.00;59.70;;;;;;5033421;28;20187;-72
2023/07/07 07:45:42;;;;;;;3.17;2.92;;;22.00;59.70;;;;;;5016973;28;20222;-74
2023/07/07 07:48:08;;;;;;;3.97;3.08;;;22.10;59.80;;;;;;5014047;28;20198;-73
2023/07/07 07:50:34;;;;;;;3.58;3.17;;;22.00;59.80;;;;;;5031585;28;20211;-73
2023/07/07 07:53:00;;;;;;;3.42;3.13;;;22.00;59.80;;;;;;5024511;28;20188;-70
2023/07/07 07:55:26;;;;;;;3.22;2.80;;;22.00;59.80;;;;;;5012810;28;20215;-73
2023/07/07 07:57:52;;;;;;;3.33;3.03;;;22.10;59.80;;;;;;5014299;28;20216;-73
2023/07/07 08:00:18;;;;;;;3.45;3.00;;;22.10;59.90;;;;;;5032508;28;20188;-73
2023/07/07 08:02:44;;;;;;;3.80;2.97;;;22.00;59.80;;;;;;5009016;28;20230;-74
2023/07/07 08:05:11;;;;;;;3.60;3.25;;;22.10;59.80;;;;;;5016485;28;20349;-73
2023/07/07 08:07:38;;;;;;;2.78;2.58;;;22.10;60.00;;;;;;5033179;28;20191;-74
2023/07/07 08:10:04;;;;;;;3.30;3.00;;;22.10;59.90;;;;;;5016621;28;20194;-74
2023/07/07 08:12:30;;;;;;;3.00;2.78;;;22.10;59.70;;;;;;5016888;28;20187;-74
2023/07/07 08:14:56;;;;;;;3.45;3.15;;;22.10;59.70;;;;;;5029557;28;20224;-74
2023/07/07 08:17:22;;;;;;;3.80;3.20;;;22.20;59.80;;;;;;5011140;28;20762;-74
2023/07/07 08:19:48;;;;;;;3.33;3.00;;;22.20;59.80;;;;;;5014410;28;20266;-73
2023/07/07 08:22:19;;;;;;;3.97;3.58;;;22.20;59.80;;;;;;5032512;28;20283;-74
2023/07/07 08:24:52;;;;;;;4.50;3.17;;;22.20;59.90;;;;;;5032454;28;20209;-73
2023/07/07 08:27:20;;;;;;;3.30;3.00;;;22.20;59.80;;;;;;5018196;28;20601;-73
2023/07/07 08:29:46;;;;;;;3.72;3.17;;;22.20;60.50;;;;;;5029511;28;20195;-74
2023/07/07 08:32:21;;;;;;;3.72;3.15;;;22.20;59.80;;;;;;5017212;28;20198;-74
2023/07/07 08:34:48;;;;;;;4.30;3.72;;;22.20;59.80;;;;;;5013608;28;20215;-74
2023/07/07 08:37:15;;;;;;;3.58;3.03;;;22.20;59.80;;;;;;5012959;28;20242;-74
2023/07/07 08:39:41;;;;;;;3.13;2.83;;;22.20;59.80;;;;;;5032165;28;20234;-74
2023/07/07 08:42:40;;;;;;;3.55;3.17;;;22.20;59.90;;;;;;5032607;28;20273;-74
2023/07/07 08:45:15;;;;;;;3.58;3.22;;;22.20;59.80;;;;;;5031739;28;20219;-72
2023/07/07 08:48:18;;;;;;;3.55;3.10;;;22.30;59.90;;;;;;5015715;28;20193;-74
2023/07/07 08:51:03;;;;;;;4.07;3.78;;;22.30;59.90;;;;;;5004830;28;20187;-74
2023/07/07 08:53:45;;;;;;;3.85;3.35;;;22.30;59.80;;;;;;5037212;28;20194;-73
2023/07/07 08:56:28;;;;;;;3.63;3.33;;;22.30;59.80;;;;;;5032251;28;20245;-73
2023/07/07 08:59:08;;;;;;;3.83;3.53;;;22.30;59.80;;;;;;5015613;28;20231;-73
2023/07/07 09:01:52;;;;;;;4.07;3.60;;;22.40;59.90;;;;;;5022052;28;20238;-73
2023/07/07 09:05:07;;;;;;;3.80;3.30;;;22.40;59.90;;;;;;5012403;28;20208;-73
2023/07/07 09:08:01;;;;;;;3.67;3.13;;;22.40;59.80;;;;;;4985325;28;20211;-74
2023/07/07 09:10:52;;;;;;;3.40;3.10;;;22.40;59.80;;;;;;5031772;28;20209;-74
2023/07/07 09:13:28;;;;;;;4.43;3.28;;;22.40;59.90;;;;;;5014457;28;20214;-72
2023/07/07 09:16:32;;;;;;;3.97;3.58;;;22.40;59.90;;;;;;5038527;28;20205;-73
2023/07/07 09:19:07;;;;;;;3.63;3.28;;;22.40;59.80;;;;;;5009022;28;20226;-72
2023/07/07 09:21:52;;;;;;;3.55;3.25;;;22.40;59.90;;;;;;5015008;28;20205;-73
2023/07/07 09:24:29;;;;;;;3.45;3.15;;;22.40;59.80;;;;;;5025392;28;20212;-73
2023/07/07 09:27:13;;;;;;;3.45;3.15;;;22.40;59.90;;;;;;5015295;28;20281;-74
2023/07/07 09:29:39;;;;;;;3.58;3.28;;;22.50;59.90;;;;;;5031286;28;20187;-73
2023/07/07 09:32:08;;;;;;;3.60;3.30;;;22.50;59.80;;;;;;5015069;28;20658;-73
2023/07/07 09:34:34;;;;;;;4.05;3.63;;;22.40;59.80;;;;;;5030972;28;20215;-73
2023/07/07 09:37:38;;;;;;;3.67;3.28;;;22.40;59.80;;;;;;5015260;28;20202;-72
2023/07/07 09:40:27;;;;;;;4.63;3.28;;;22.40;59.80;;;;;;5013907;28;20712;-73
2023/07/07 09:43:14;;;;;;;6.15;4.20;;;22.40;59.80;;;;;;5004799;28;20188;-73
2023/07/07 09:46:10;;;;;;;4.25;3.85;;;22.40;59.90;;;;;;5007449;28;20252;-73
2023/07/07 09:49:36;;;;;;;4.07;3.58;;;22.50;60.00;;;;;;5012961;28;20255;-73
2023/07/07 09:52:33;;;;;;;3.78;3.25;;;22.50;60.00;;;;;;5019588;28;20257;-73
2023/07/07 09:55:02;;;;;;;5.10;4.40;;;22.50;59.90;;;;;;5008393;28;20577;-73
2023/07/07 09:57:41;;;;;;;4.90;4.40;;;22.50;60.00;;;;;;5028969;28;20184;-73
2023/07/07 10:00:16;;;;;;;4.70;4.10;;;22.50;59.90;;;;;;5040858;28;20678;-73
2023/07/07 10:02:45;;;;;;;9.70;5.88;;;22.50;60.00;;;;;;5013904;28;20298;-74
2023/07/07 10:05:20;;;;;;;6.55;5.00;;;22.50;60.00;;;;;;5031083;28;20207;-73
2023/07/07 10:07:46;;;;;;;6.55;5.00;;;22.50;60.10;;;;;;5013776;28;20195;-70
2023/07/07 10:10:13;;;;;;;7.43;5.63;;;22.50;60.00;;;;;;5029323;28;20195;-72
2023/07/07 10:12:41;;;;;;;7.25;5.00;;;22.50;60.20;;;;;;5013159;28;20183;-71
2023/07/07 10:15:55;;;;;;;6.75;5.43;;;22.50;60.10;;;;;;5022512;28;20285;-70
2023/07/07 10:18:27;;;;;;;10.27;6.40;;;22.50;60.90;;;;;;4997560;28;20314;-73
2023/07/07 10:20:57;;;;;;;9.98;6.35;;;22.50;60.00;;;;;;5031118;28;20202;-71
2023/07/07 10:23:23;;;;;;;8.50;6.05;;;22.50;60.10;;;;;;5014521;28;20187;-72
2023/07/07 10:25:48;;;;;;;10.43;6.30;;;22.50;60.10;;;;;;5015858;28;20716;-72
2023/07/07 10:28:18;;;;;;;8.65;6.28;;;22.50;60.00;;;;;;5014323;28;20195;-72
2023/07/07 10:30:46;;;;;;;10.15;6.55;;;22.50;59.90;;;;;;5030621;28;20199;-72
2023/07/07 10:33:20;;;;;;;9.13;6.68;;;22.50;60.00;;;;;;5013612;28;20191;-72
2023/07/07 10:35:46;;;;;;;10.65;7.22;;;22.50;60.00;;;;;;5014154;28;20202;-73
2023/07/07 10:38:12;;;;;;;11.77;6.70;;;22.60;60.00;;;;;;5014243;28;20214;-72
2023/07/07 10:40:41;;;;;;;10.13;6.78;;;22.50;59.80;;;;;;5030692;28;20191;-72
2023/07/07 10:43:12;;;;;;;8.45;6.18;;;22.50;59.80;;;;;;5027167;28;20192;-72
2023/07/07 10:45:43;;;;;;;10.43;6.50;;;22.50;59.90;;;;;;5029108;28;20211;-72
2023/07/07 10:48:14;;;;;;;9.50;6.60;;;22.50;59.80;;;;;;5030638;28;20198;-72
2023/07/07 10:51:04;;;;;;;10.63;6.72;;;22.50;59.90;;;;;;5030721;28;20187;-71
2023/07/07 10:54:26;;;;;;;9.25;6.68;;;22.50;59.60;;;;;;5013733;28;20199;-72
2023/07/07 10:57:15;;;;;;;10.45;6.68;;;22.50;59.90;;;;;;5022141;28;20232;-72
2023/07/07 11:00:19;;;;;;;7.60;6.03;;;22.50;59.70;;;;;;5013451;28;20227;-72
2023/07/07 11:02:59;;;;;;;8.60;6.80;;;22.50;59.60;;;;;;5019345;28;20191;-71
2023/07/07 11:05:45;;;;;;;9.07;6.28;;;22.60;59.80;;;;;;5009494;28;20215;-71
2023/07/07 11:08:39;;;;;;;11.07;7.15;;;22.50;59.60;;;;;;5030276;28;20202;-71
2023/07/07 11:11:22;;;;;;;9.63;6.13;;;22.50;59.70;;;;;;5014371;28;20207;-72
2023/07/07 11:14:00;;;;;;;9.05;6.20;;;22.50;59.60;;;;;;5013405;28;20637;-73
2023/07/07 11:16:57;;;;;;;7.47;5.95;;;22.50;59.60;;;;;;5030222;28;20206;-74
2023/07/07 11:19:47;;;;;;;11.82;6.85;;;22.50;59.40;;;;;;5013906;28;20600;-73
2023/07/07 11:22:44;;;;;;;10.30;6.93;;;22.50;59.50;;;;;;5013531;28;20184;-73
2023/07/07 11:25:46;;;;;;;9.43;6.03;;;22.60;59.60;;;;;;5013289;28;20712;-74
2023/07/07 11:28:17;;;;;;;10.20;6.50;;;22.60;59.50;;;;;;5003381;28;20199;-73
2023/07/07 11:31:38;;;;;;;9.32;6.22;;;22.60;60.10;;;;;;5022131;28;20200;-74
2023/07/07 11:34:35;;;;;;;8.93;6.47;;;22.60;59.70;;;;;;5007734;28;20212;-74
2023/07/07 11:37:49;;;;;;;8.65;6.65;;;22.60;59.40;;;;;;5016688;28;20266;-73
2023/07/07 11:40:35;;;;;;;9.48;6.45;;;22.60;59.30;;;;;;5013995;28;20199;-74
2023/07/07 11:43:52;;;;;;;8.95;6.22;;;22.60;59.20;;;;;;5025831;28;20191;-73
2023/07/07 11:46:58;;;;;;;11.75;6.50;;;22.60;59.30;;;;;;4965480;28;20212;-73
2023/07/07 11:49:45;;;;;;;9.95;6.47;;;22.60;59.40;;;;;;5030364;28;20620;-73
2023/07/07 11:52:14;;;;;;;8.32;6.55;;;22.60;59.10;;;;;;5012777;28;20191;-74
2023/07/07 11:55:10;;;;;;;8.32;6.15;;;22.60;59.20;;;;;;5024042;28;20207;-73
2023/07/07 11:58:05;;;;;;;8.27;5.97;;;22.60;59.00;;;;;;5016950;28;20195;-74
2023/07/07 12:00:54;;;;;;;9.15;6.25;;;22.60;59.00;;;;;;5016881;28;20645;-73
2023/07/07 12:03:44;;;;;;;8.80;6.13;;;22.60;59.00;;;;;;5016444;28;20183;-74
2023/07/07 12:06:24;;;;;;;7.93;6.03;;;22.60;59.00;;;;;;5033594;28;20229;-73
2023/07/07 12:09:23;;;;;;;8.15;6.22;;;22.60;59.10;;;;;;5033190;28;20192;-73
2023/07/07 12:12:10;;;;;;;8.55;5.82;;;22.60;59.30;;;;;;5016709;28;20229;-74
2023/07/07 12:14:55;;;;;;;7.32;5.97;;;22.60;59.20;;;;;;5015986;28;20218;-73
2023/07/07 12:17:32;;;;;;;8.23;6.32;;;22.60;59.00;;;;;;5032984;28;20195;-72
2023/07/07 12:20:18;;;;;;;7.35;5.40;;;22.60;58.90;;;;;;5022472;28;20196;-73
2023/07/07 12:22:46;;;;;;;7.53;6.15;;;22.60;59.00;;;;;;5021410;28;20180;-73
2023/07/07 12:25:12;;;;;;;9.35;6.03;;;22.60;59.00;;;;;;5028707;28;20203;-73
2023/07/07 12:27:51;;;;;;;7.93;5.90;;;22.60;59.00;;;;;;5024313;28;20194;-74
2023/07/07 12:30:33;;;;;;;6.80;5.45;;;22.60;59.00;;;;;;5016252;28;20187;-74
2023/07/07 12:32:59;;;;;;;8.25;6.10;;;22.60;59.00;;;;;;5007145;28;20188;-73
2023/07/07 12:35:35;;;;;;;8.05;5.82;;;22.70;59.00;;;;;;5033711;28;20240;-73
2023/07/07 12:38:26;;;;;;;6.60;5.18;;;22.60;58.80;;;;;;5016302;28;20236;-73
2023/07/07 12:41:00;;;;;;;7.35;5.82;;;22.60;58.80;;;;;;5042581;28;20190;-73
2023/07/07 12:43:37;;;;;;;8.57;5.80;;;22.60;58.70;;;;;;5016078;28;20699;-71
2023/07/07 12:46:15;;;;;;;6.78;5.50;;;22.70;58.80;;;;;;5015609;28;20191;-74
2023/07/07 12:48:45;;;;;;;7.03;5.60;;;22.70;58.60;;;;;;5014360;28;20249;-74
2023/07/07 12:51:12;;;;;;;8.20;5.80;;;22.70;58.60;;;;;;5023863;28;20219;-74
2023/07/07 12:53:46;;;;;;;7.57;5.53;;;22.70;58.30;;;;;;5015120;28;20225;-74
2023/07/07 12:56:19;;;;;;;8.35;5.13;;;22.70;58.70;;;;;;5032640;28;20211;-74
2023/07/07 12:58:50;;;;;;;6.90;5.57;;;22.70;58.50;;;;;;5016077;28;20215;-74
2023/07/07 13:01:15;;;;;;;7.55;5.65;;;22.70;58.20;;;;;;5015876;28;20188;-74
2023/07/07 13:04:04;;;;;;;6.30;5.47;;;22.70;58.50;;;;;;5031655;28;20214;-74
2023/07/07 13:07:01;;;;;;;7.00;5.68;;;22.70;58.60;;;;;;5029105;28;20192;-74
2023/07/07 13:09:43;;;;;;;6.40;5.72;;;22.70;58.50;;;;;;5015462;28;20198;-74
2023/07/07 13:12:47;;;;;;;7.15;5.70;;;22.70;58.60;;;;;;5015745;28;20187;-74
2023/07/07 13:15:18;;;;;;;7.10;5.30;;;22.70;58.60;;;;;;5020965;28;20211;-73
2023/07/07 13:17:46;;;;;;;6.57;5.47;;;22.70;58.20;;;;;;5032163;28;20382;-74
2023/07/07 13:20:17;;;;;;;7.75;5.50;;;22.70;58.40;;;;;;5015807;28;20249;-74